Friday, March 27, 2015
19:08 UTC
  |  Log In   |  Register Free
Airport Search:

Fairfield County Airport
(KFDW)

Fairfield County Airport Diagram
No Airport Diagram Available

FAA data valid effective March 05, 2015 - April 30, 2015 (unless otherwise noted).

 
 
 
 
 
 
 
 
 
 
 
 
 
 

Current Aviation Weather for Fairfield County Airport (KFDW)

The most recent METAR observation for KFDW was updated at: 1409
METAR Summary (Translated METAR)
KFDW
251355Z AUTO 07007KT 10SM BKN007 OVC060 15/13 A3023 RMK AO1
KCUB
251353Z AUTO 06003KT 10SM OVC013 17/13 A3023 RMK AO2 SLP237 T01670128
(21.5 nm SE from KFDW)
KCAE
251356Z 09010KT 10SM BKN013 OVC065 17/13 A3022 RMK AO2 SLP230 T01720133
(22.6 nm SW from KFDW)
TAF Summary (Translated TAF)
KCUB
(21.5 nm SE from KFDW)
251135Z 2512/2612 08005KT P6SM SCT015 OVC060 FM251300 08006KT P6SM SCT007 OVC015 FM252100 12006KT P6SM OVC035 FM260400 14003KT 4SM BR OVC007
KCAE
(22.6 nm SW from KFDW)
251149Z 2512/2612 08006KT P6SM SCT007 OVC015 TEMPO 2513/2516 BKN008 FM252100 12006KT P6SM OVC035 FM260400 14003KT 4SM BR OVC007
  Airport Weather Conditions for KFDW

 Current Weather at FDW
50° F
Overcast
North winds at 12.7 mph
FDW NOAA Radar

Pressure: 29.73 in
Humidity: 88%
Wind: from the North at 12.7 gusting to 20.7 MPH (11 gusting to 18 KT)
Dew Point: 46.4°F
Visibility: 10.00 mi


Airport Weather Forecast for KFDW

Translated METAR and TAF for KFDW
Translated METAR for KFDW (1908 UTC 27 March 2015)
found at http://aviationweather.gov/adds/metars/
 
METAR text: KFDW 271855Z AUTO 01007KT 10SM BKN014 10/07 A2973 RMK AO1
Conditions at: KFDW (WINNSBORO , SC, US) observed 1855 UTC 27 March 2015
Temperature: 10.0°C (50°F)
Dewpoint: 7.0°C (45°F) [RH = 82%]
Pressure (altimeter): 29.73 inches Hg (1006.9 mb)
Winds: from the N (10 degrees) at 8 MPH (7 knots; 3.6 m/s)
Visibility: 10 or more miles (16+ km)
Ceiling: 1400 feet AGL
Clouds: broken clouds at 1400 feet AGL
Weather: automated observation with no human augmentation;
there may or may not be significant weather present at this time
Translated TAF for KFDW

There is no translated TAF available for this airport

Find All Airport Services Find A Hotel Find A Rental Car Find A Golf Course Find A Restaurant $100 Hamburger



FBO's on the Field
FBO Company Facility Photos Services Transportation Aviation Fuel Prices: Prices include tax
Catering Weather Repair Courtesy Rental Type 100LL JetA JetA+ MOGAS 8087
 
S & S Aviation Services

This FBO has not yet been rated
FS:Shell
Last Updated: Mar-05
Login to update fuel prices
SS:
Contact S & S Aviation ServicesMore FBO Information
 
Add another FBO Facility Photos Catering Weather Repair Courtesy Rental Type 100LL JetA JetA+ MOGAS 8087
Services Transportation Aviation Fuel Prices: Prices include tax


model-print
model-print
model-print
model-print